createdAt,value
2018-08-31T00:00:42.433Z,4.13
2018-08-31T00:03:11.762Z,4.10
2018-08-31T00:05:55.641Z,3.53
2018-08-31T00:10:39.722Z,4.43
2018-08-31T00:13:08.925Z,4.63
2018-08-31T00:15:37.429Z,4.60
2018-08-31T00:18:05.558Z,5.07
2018-08-31T00:20:33.717Z,4.40
2018-08-31T00:23:01.865Z,5.37
2018-08-31T00:26:08.889Z,4.23
2018-08-31T00:28:49.249Z,4.47
2018-08-31T00:33:36.593Z,4.93
2018-08-31T00:40:25.253Z,4.57
2018-08-31T00:43:11.817Z,4.80
2018-08-31T00:45:41.065Z,4.97
2018-08-31T00:48:09.509Z,4.40
2018-08-31T00:50:37.694Z,4.63
2018-08-31T00:53:06.381Z,3.93
2018-08-31T00:55:34.746Z,4.70
2018-08-31T00:58:02.862Z,4.30
2018-08-31T01:00:30.973Z,3.77
2018-08-31T01:02:59.109Z,4.63
2018-08-31T01:05:27.234Z,4.40
2018-08-31T01:07:55.369Z,3.93
2018-08-31T01:10:24.465Z,4.00
2018-08-31T01:12:53.649Z,6.20
2018-08-31T01:15:21.751Z,4.30
2018-08-31T01:17:49.897Z,4.20
2018-08-31T01:20:18.007Z,4.57
2018-08-31T01:22:46.125Z,4.37
2018-08-31T01:25:14.229Z,4.77
2018-08-31T01:30:16.889Z,4.87
2018-08-31T01:32:45.011Z,5.30
2018-08-31T01:35:13.113Z,4.90
2018-08-31T01:37:41.234Z,5.03
2018-08-31T01:40:09.334Z,4.43
2018-08-31T01:42:37.450Z,4.90
2018-08-31T01:45:05.561Z,5.63
2018-08-31T01:47:34.047Z,5.00
2018-08-31T01:50:02.154Z,4.23
2018-08-31T01:52:30.282Z,4.67
2018-08-31T01:54:58.378Z,4.53
2018-08-31T01:57:26.506Z,5.40
2018-08-31T01:59:54.612Z,5.50
2018-08-31T02:02:23.782Z,4.90
2018-08-31T02:04:52.585Z,3.90
2018-08-31T02:07:20.705Z,4.60
2018-08-31T02:09:48.817Z,3.73
2018-08-31T02:12:16.937Z,3.97
2018-08-31T02:14:45.064Z,4.53
2018-08-31T02:17:13.170Z,4.63
2018-08-31T02:19:41.277Z,4.20
2018-08-31T02:22:09.401Z,4.87
2018-08-31T02:24:37.522Z,4.37
2018-08-31T02:27:05.641Z,4.53
2018-08-31T02:29:33.749Z,4.73
2018-08-31T02:32:01.861Z,4.73
2018-08-31T02:34:29.977Z,4.70
2018-08-31T02:36:58.097Z,4.50
2018-08-31T02:39:26.270Z,4.57
2018-08-31T02:41:54.322Z,4.73
2018-08-31T02:44:22.429Z,3.97
2018-08-31T02:46:50.550Z,3.93
2018-08-31T02:49:18.661Z,3.93
2018-08-31T02:51:46.777Z,4.30
2018-08-31T02:54:14.881Z,4.00
2018-08-31T02:56:43.037Z,3.60
2018-08-31T02:59:11.185Z,4.03
2018-08-31T03:01:39.337Z,3.63
2018-08-31T03:04:07.509Z,4.13
2018-08-31T03:06:35.649Z,3.60
2018-08-31T03:09:04.929Z,3.50
2018-08-31T03:11:33.139Z,4.33
2018-08-31T03:14:01.238Z,2.97
2018-08-31T03:16:29.369Z,3.20
2018-08-31T03:18:57.513Z,3.40
2018-08-31T03:21:25.716Z,3.97
2018-08-31T03:23:53.797Z,3.43
2018-08-31T03:26:21.937Z,2.77
2018-08-31T03:28:50.090Z,3.63
2018-08-31T03:31:18.246Z,3.70
2018-08-31T03:33:46.377Z,3.60
2018-08-31T03:36:14.547Z,3.30
2018-08-31T03:38:42.694Z,3.40
2018-08-31T03:41:10.829Z,4.00
2018-08-31T03:43:38.990Z,3.37
2018-08-31T03:46:07.125Z,3.70
2018-08-31T03:48:35.278Z,3.43
2018-08-31T03:51:03.442Z,3.80
2018-08-31T03:53:31.585Z,4.00
2018-08-31T03:55:59.801Z,4.53
2018-08-31T03:58:27.973Z,4.40
2018-08-31T04:00:56.102Z,3.77
2018-08-31T04:03:24.230Z,3.90
2018-08-31T04:05:52.341Z,4.03
2018-08-31T04:08:20.462Z,3.77
2018-08-31T04:10:48.565Z,3.03
2018-08-31T04:13:16.699Z,2.90
2018-08-31T04:15:44.857Z,3.30
2018-08-31T04:18:13.037Z,3.50
2018-08-31T04:20:41.153Z,3.57
2018-08-31T04:23:09.270Z,4.03
2018-08-31T04:25:37.389Z,4.10
2018-08-31T04:28:05.709Z,3.50
2018-08-31T04:30:33.821Z,2.93
2018-08-31T04:33:02.198Z,3.60
2018-08-31T04:35:30.310Z,3.27
2018-08-31T04:37:58.438Z,3.30
2018-08-31T04:40:26.559Z,3.67
2018-08-31T04:42:54.801Z,3.30
2018-08-31T04:45:22.813Z,2.70
2018-08-31T04:47:50.965Z,3.00
2018-08-31T04:50:19.113Z,3.90
2018-08-31T04:52:47.205Z,3.27
2018-08-31T04:55:15.322Z,2.90
2018-08-31T04:57:43.449Z,3.17
2018-08-31T05:00:11.565Z,3.40
2018-08-31T05:02:46.073Z,2.60
2018-08-31T05:05:14.197Z,2.70
2018-08-31T05:07:42.310Z,2.50
2018-08-31T05:10:10.441Z,3.50
2018-08-31T05:12:38.564Z,2.60
2018-08-31T05:15:06.678Z,2.57
2018-08-31T05:17:34.798Z,2.70
2018-08-31T05:20:02.922Z,2.70
2018-08-31T05:22:31.106Z,2.93
2018-08-31T05:24:59.192Z,2.20
2018-08-31T05:27:27.306Z,2.90
2018-08-31T05:29:55.428Z,2.27
2018-08-31T05:32:23.545Z,3.10
2018-08-31T05:34:51.781Z,2.37
2018-08-31T05:37:19.793Z,3.33
2018-08-31T05:39:47.909Z,2.57
2018-08-31T05:42:16.034Z,2.70
2018-08-31T05:44:44.151Z,2.47
2018-08-31T05:47:12.274Z,3.00
2018-08-31T05:49:40.390Z,2.00
2018-08-31T05:52:08.497Z,2.37
2018-08-31T05:54:36.621Z,2.27
2018-08-31T05:57:04.926Z,2.53
2018-08-31T05:59:33.062Z,2.57
2018-08-31T06:02:01.247Z,2.30
2018-08-31T06:04:29.370Z,2.00
2018-08-31T06:06:57.489Z,3.20
2018-08-31T06:09:25.637Z,2.10
2018-08-31T06:11:53.968Z,2.20
2018-08-31T06:14:22.093Z,2.50
2018-08-31T06:16:50.237Z,2.10
2018-08-31T06:19:18.386Z,2.17
2018-08-31T06:21:46.542Z,1.97
2018-08-31T06:24:14.677Z,2.03
2018-08-31T06:26:42.897Z,2.30
2018-08-31T06:29:11.050Z,2.30
2018-08-31T06:31:39.190Z,1.90
2018-08-31T06:34:07.341Z,2.20
2018-08-31T06:36:35.613Z,3.73
2018-08-31T06:39:05.161Z,2.10
2018-08-31T06:41:33.304Z,2.63
2018-08-31T06:44:01.465Z,2.30
2018-08-31T06:46:29.615Z,2.23
2018-08-31T06:48:57.859Z,2.90
2018-08-31T06:51:26.047Z,1.83
2018-08-31T06:53:54.370Z,2.87
2018-08-31T06:56:22.513Z,2.30
2018-08-31T06:58:50.673Z,2.27
2018-08-31T07:01:18.806Z,2.30
2018-08-31T07:03:47.011Z,1.90
2018-08-31T07:06:15.106Z,2.00
2018-08-31T07:08:43.245Z,1.93
2018-08-31T07:11:11.398Z,2.07
2018-08-31T07:13:39.534Z,1.67
2018-08-31T07:16:07.681Z,2.40
2018-08-31T07:18:35.818Z,2.10
2018-08-31T07:21:03.962Z,2.83
2018-08-31T07:23:32.101Z,2.33
2018-08-31T07:26:00.305Z,2.03
2018-08-31T07:28:28.446Z,2.43
2018-08-31T07:30:56.609Z,1.87
2018-08-31T07:33:24.765Z,2.30
2018-08-31T07:35:52.897Z,2.53
2018-08-31T07:38:21.330Z,2.23
2018-08-31T07:40:49.818Z,2.23
2018-08-31T07:43:17.993Z,1.80
2018-08-31T07:45:46.198Z,2.23
2018-08-31T07:48:14.293Z,1.90
2018-08-31T07:50:42.433Z,1.80
2018-08-31T07:53:10.571Z,2.40
2018-08-31T07:55:38.714Z,1.80
2018-08-31T07:58:06.858Z,1.77
2018-08-31T08:00:35.008Z,2.40
2018-08-31T08:03:03.162Z,1.90
2018-08-31T08:05:31.378Z,2.10
2018-08-31T08:07:59.498Z,2.20
2018-08-31T08:10:27.665Z,2.40
2018-08-31T08:12:55.802Z,2.83
2018-08-31T08:15:23.949Z,1.90
2018-08-31T08:17:52.077Z,1.60
2018-08-31T08:20:20.246Z,1.97
2018-08-31T08:22:48.382Z,2.00
2018-08-31T08:25:16.538Z,1.80
2018-08-31T08:27:44.674Z,2.23
2018-08-31T08:30:12.809Z,1.63
2018-08-31T08:32:40.942Z,2.07
2018-08-31T08:35:15.786Z,1.90
2018-08-31T08:37:43.914Z,2.37
2018-08-31T08:40:12.145Z,1.50
2018-08-31T08:42:40.426Z,2.40
2018-08-31T08:45:08.564Z,2.20
2018-08-31T08:47:36.701Z,2.70
2018-08-31T08:50:05.279Z,1.97
2018-08-31T08:52:33.598Z,2.27
2018-08-31T08:55:01.762Z,1.70
2018-08-31T08:57:29.874Z,1.60
2018-08-31T08:59:57.977Z,1.67
2018-08-31T09:02:26.086Z,2.07
2018-08-31T09:04:54.193Z,2.13
2018-08-31T09:07:22.317Z,1.20
2018-08-31T09:09:50.423Z,1.90
2018-08-31T09:12:18.567Z,1.57
2018-08-31T09:14:46.629Z,1.60
2018-08-31T09:17:14.751Z,1.77
2018-08-31T09:19:42.865Z,1.77
2018-08-31T09:22:10.998Z,1.47
2018-08-31T09:24:39.184Z,1.20
2018-08-31T09:27:07.602Z,1.43
2018-08-31T09:29:35.713Z,2.17
2018-08-31T09:32:09.425Z,1.27
2018-08-31T09:34:41.769Z,1.60
2018-08-31T09:37:09.969Z,1.47
2018-08-31T09:39:38.075Z,1.53
2018-08-31T09:42:06.193Z,1.70
2018-08-31T09:44:34.290Z,1.80
2018-08-31T09:47:03.406Z,1.27
2018-08-31T09:49:31.516Z,1.47
2018-08-31T09:51:59.714Z,1.37
2018-08-31T09:54:27.858Z,1.20
2018-08-31T09:56:55.969Z,1.23
2018-08-31T09:59:24.066Z,1.00
2018-08-31T10:01:52.177Z,1.23
2018-08-31T10:04:20.285Z,1.30
2018-08-31T10:06:48.489Z,1.27
2018-08-31T10:09:16.597Z,1.37
2018-08-31T10:11:44.758Z,1.47
2018-08-31T10:14:12.924Z,1.10
2018-08-31T10:16:41.030Z,1.20
2018-08-31T10:19:09.138Z,1.03
2018-08-31T10:21:37.261Z,1.30
2018-08-31T10:24:05.486Z,1.20
2018-08-31T10:26:33.603Z,1.10
2018-08-31T10:29:01.708Z,0.93
2018-08-31T10:31:29.905Z,4.33
2018-08-31T10:33:58.109Z,1.50
2018-08-31T10:36:26.241Z,1.40
2018-08-31T10:38:54.393Z,1.20
2018-08-31T10:41:22.506Z,1.33
2018-08-31T10:43:50.614Z,1.27
2018-08-31T10:46:18.804Z,1.40
2018-08-31T10:48:46.883Z,1.10
2018-08-31T10:51:15.057Z,1.23
2018-08-31T10:53:43.173Z,0.90
2018-08-31T10:56:11.299Z,1.10
2018-08-31T10:58:39.433Z,1.50
2018-08-31T11:01:07.606Z,1.83
2018-08-31T11:03:35.800Z,1.37
2018-08-31T11:06:03.930Z,1.60
2018-08-31T11:08:32.069Z,1.23
2018-08-31T11:11:00.253Z,1.43
2018-08-31T11:13:28.390Z,1.60
2018-08-31T11:15:56.533Z,1.37
2018-08-31T11:18:24.675Z,1.30
2018-08-31T11:20:52.871Z,1.07
2018-08-31T11:23:21.126Z,1.20
2018-08-31T11:25:49.264Z,2.20
2018-08-31T11:28:17.437Z,1.47
2018-08-31T11:30:45.548Z,1.70
2018-08-31T11:33:13.691Z,1.53
2018-08-31T11:35:41.908Z,1.37
2018-08-31T11:38:10.033Z,1.60
2018-08-31T11:40:38.174Z,1.80
2018-08-31T11:43:06.326Z,1.20
2018-08-31T11:45:34.458Z,1.43
2018-08-31T11:48:03.078Z,1.50
2018-08-31T11:50:31.236Z,2.77
2018-08-31T11:52:59.477Z,1.40
2018-08-31T11:55:27.597Z,1.17
2018-08-31T11:57:55.749Z,1.80
2018-08-31T12:00:24.003Z,1.80
2018-08-31T12:02:52.179Z,1.60
2018-08-31T12:05:20.322Z,1.20
2018-08-31T12:07:48.519Z,1.73
2018-08-31T12:10:16.602Z,1.63
2018-08-31T12:12:44.734Z,1.27
2018-08-31T12:15:12.885Z,1.50
2018-08-31T12:17:41.040Z,2.00
2018-08-31T12:20:09.186Z,1.77
2018-08-31T12:22:37.335Z,1.53
2018-08-31T12:25:06.143Z,1.33
2018-08-31T12:27:34.292Z,1.57
2018-08-31T12:30:02.647Z,1.80
2018-08-31T12:32:31.057Z,1.73
2018-08-31T12:34:59.361Z,1.30
2018-08-31T12:37:27.774Z,1.40
2018-08-31T12:39:55.901Z,1.80
2018-08-31T12:42:24.050Z,1.50
2018-08-31T12:44:52.394Z,1.60
2018-08-31T12:47:20.543Z,1.60
2018-08-31T12:49:48.689Z,1.50
2018-08-31T12:52:16.826Z,1.20
2018-08-31T12:54:44.992Z,1.80
2018-08-31T12:57:13.118Z,1.43
2018-08-31T12:59:45.497Z,1.20
2018-08-31T13:02:13.641Z,1.50
2018-08-31T13:04:42.113Z,1.77
2018-08-31T13:07:10.242Z,1.40
2018-08-31T13:09:38.385Z,1.40
2018-08-31T13:12:06.513Z,1.47
2018-08-31T13:14:34.662Z,1.47
2018-08-31T13:17:02.783Z,1.50
2018-08-31T13:19:30.922Z,1.33
2018-08-31T13:21:59.062Z,1.70
2018-08-31T13:24:27.205Z,1.50
2018-08-31T13:26:55.334Z,1.03
2018-08-31T13:29:23.465Z,1.60
2018-08-31T13:31:51.622Z,1.60
2018-08-31T13:34:19.769Z,1.60
2018-08-31T13:36:47.902Z,1.50
2018-08-31T13:39:16.041Z,1.10
2018-08-31T13:41:44.182Z,1.50
2018-08-31T13:44:12.317Z,1.83
2018-08-31T13:46:40.453Z,1.33
2018-08-31T13:49:08.590Z,1.27
2018-08-31T13:51:36.727Z,1.70
2018-08-31T13:54:04.862Z,1.30
2018-08-31T13:56:33.710Z,1.67
2018-08-31T13:59:01.878Z,3.77
2018-08-31T14:01:29.978Z,1.33
2018-08-31T14:03:58.114Z,2.13
2018-08-31T14:06:26.354Z,1.83
2018-08-31T14:08:54.465Z,1.60
2018-08-31T14:11:22.565Z,2.43
2018-08-31T14:13:50.925Z,1.77
2018-08-31T14:16:19.025Z,2.03
2018-08-31T14:18:47.155Z,1.50
2018-08-31T14:21:17.457Z,1.97
2018-08-31T14:23:45.605Z,1.53
2018-08-31T14:26:13.713Z,2.13
2018-08-31T14:28:41.822Z,2.33
2018-08-31T14:31:09.933Z,1.90
2018-08-31T14:33:38.045Z,1.90
2018-08-31T14:36:06.456Z,2.20
2018-08-31T14:38:34.569Z,1.60
2018-08-31T14:41:02.718Z,1.87
2018-08-31T14:43:30.834Z,1.43
2018-08-31T14:45:58.938Z,2.13
2018-08-31T14:48:27.089Z,1.60
2018-08-31T14:50:55.214Z,1.80
2018-08-31T14:53:23.329Z,1.60
2018-08-31T14:55:51.441Z,1.37
2018-08-31T14:58:19.590Z,1.30
2018-08-31T15:00:47.741Z,2.03
2018-08-31T15:03:15.869Z,1.33
2018-08-31T15:05:44.008Z,1.70
2018-08-31T15:08:12.141Z,1.40
2018-08-31T15:10:40.272Z,1.70
2018-08-31T15:13:08.528Z,1.53
2018-08-31T15:15:36.534Z,1.53
2018-08-31T15:18:04.661Z,1.30
2018-08-31T15:20:32.798Z,1.33
2018-08-31T15:23:00.942Z,1.97
2018-08-31T15:25:29.081Z,1.53
2018-08-31T15:27:57.205Z,2.00
2018-08-31T15:30:25.350Z,1.67
2018-08-31T15:32:53.482Z,2.10
2018-08-31T15:35:21.922Z,2.20
2018-08-31T15:37:50.050Z,1.53
2018-08-31T15:40:18.178Z,2.00
2018-08-31T15:42:46.398Z,2.47
2018-08-31T15:45:14.442Z,1.87
2018-08-31T15:47:42.567Z,2.20
2018-08-31T15:50:10.714Z,2.43
2018-08-31T15:52:38.854Z,2.60
2018-08-31T15:55:07.049Z,2.50
2018-08-31T15:57:35.165Z,2.33
2018-08-31T16:00:03.278Z,2.80
2018-08-31T16:02:31.471Z,2.33
2018-08-31T16:04:59.497Z,2.47
2018-08-31T16:07:27.601Z,2.50
2018-08-31T16:09:55.733Z,2.70
2018-08-31T16:12:23.856Z,2.70
2018-08-31T16:14:51.962Z,2.17
2018-08-31T16:17:20.065Z,2.47
2018-08-31T16:19:48.177Z,2.70
2018-08-31T16:22:16.301Z,1.87
2018-08-31T16:24:44.426Z,2.53
2018-08-31T16:27:12.530Z,1.60
2018-08-31T16:29:40.636Z,1.50
2018-08-31T16:32:08.733Z,2.30
2018-08-31T16:34:36.858Z,1.90
2018-08-31T16:37:04.981Z,2.57
2018-08-31T16:39:33.093Z,2.07
2018-08-31T16:42:01.217Z,2.10
2018-08-31T16:44:29.325Z,2.00
2018-08-31T16:46:57.462Z,1.97
2018-08-31T16:49:25.593Z,1.93
2018-08-31T16:51:53.701Z,2.13
2018-08-31T16:54:21.814Z,1.90
2018-08-31T16:56:49.941Z,1.97
2018-08-31T16:59:18.053Z,1.40
2018-08-31T17:01:46.165Z,1.47
2018-08-31T17:04:14.275Z,1.90
2018-08-31T17:06:42.426Z,2.63
2018-08-31T17:09:12.097Z,1.60
2018-08-31T17:11:40.603Z,2.00
2018-08-31T17:14:08.704Z,2.20
2018-08-31T17:16:37.053Z,1.90
2018-08-31T17:19:05.395Z,2.23
2018-08-31T17:21:33.513Z,2.00
2018-08-31T17:24:01.656Z,2.30
2018-08-31T17:26:35.173Z,1.80
2018-08-31T17:29:08.882Z,1.93
2018-08-31T17:31:42.254Z,1.97
2018-08-31T17:34:15.690Z,1.80
2018-08-31T17:36:49.086Z,1.80
2018-08-31T17:39:17.193Z,2.23
2018-08-31T17:41:45.310Z,1.73
2018-08-31T17:44:13.502Z,1.70
2018-08-31T17:46:41.601Z,2.00
2018-08-31T17:49:09.710Z,1.97
2018-08-31T17:51:38.644Z,2.70
2018-08-31T17:54:06.746Z,2.47
2018-08-31T17:56:34.869Z,2.30
2018-08-31T17:59:03.013Z,2.40
2018-08-31T18:01:31.261Z,2.50
2018-08-31T18:03:59.449Z,1.40
2018-08-31T18:06:27.545Z,1.90
2018-08-31T18:08:55.810Z,1.97
2018-08-31T18:11:23.973Z,2.60
2018-08-31T18:13:52.160Z,2.97
2018-08-31T18:16:20.442Z,2.60
2018-08-31T18:18:48.480Z,2.30
2018-08-31T18:21:16.609Z,2.23
2018-08-31T18:23:44.742Z,4.10
2018-08-31T18:26:12.921Z,4.00
2018-08-31T18:28:41.041Z,2.50
2018-08-31T18:31:09.189Z,1.90
2018-08-31T18:33:37.573Z,1.50
2018-08-31T18:36:05.847Z,1.50
2018-08-31T18:38:34.166Z,1.90
2018-08-31T18:41:02.690Z,2.37
2018-08-31T18:43:30.821Z,2.00
2018-08-31T18:45:59.053Z,1.17
2018-08-31T18:48:27.213Z,1.93
2018-08-31T18:50:55.441Z,1.90
2018-08-31T18:53:23.682Z,1.83
2018-08-31T18:55:58.435Z,2.23
2018-08-31T18:58:26.550Z,1.30
2018-08-31T19:00:54.883Z,2.23
2018-08-31T19:03:22.982Z,1.47
2018-08-31T19:05:51.095Z,1.67
2018-08-31T19:08:19.209Z,1.80
2018-08-31T19:10:47.309Z,1.50
2018-08-31T19:13:15.428Z,1.63
2018-08-31T19:15:43.622Z,2.00
2018-08-31T19:18:11.789Z,1.93
2018-08-31T19:20:39.997Z,1.47
2018-08-31T19:23:08.113Z,2.50
2018-08-31T19:25:36.219Z,2.10
2018-08-31T19:28:04.441Z,1.63
2018-08-31T19:30:32.768Z,1.43
2018-08-31T19:33:00.993Z,1.17
2018-08-31T19:35:29.166Z,1.70
2018-08-31T19:37:57.317Z,1.80
2018-08-31T19:40:25.450Z,1.40
2018-08-31T19:42:53.625Z,1.40
2018-08-31T19:45:21.745Z,1.60
2018-08-31T19:47:50.322Z,1.77
2018-08-31T19:50:18.429Z,1.63
2018-08-31T19:52:46.546Z,1.83
2018-08-31T19:55:14.649Z,1.50
2018-08-31T19:57:42.802Z,1.30
2018-08-31T20:00:11.037Z,2.03
2018-08-31T20:02:39.181Z,1.20
2018-08-31T20:05:07.338Z,1.63
2018-08-31T20:07:35.634Z,1.40
2018-08-31T20:10:03.782Z,1.50
2018-08-31T20:12:31.930Z,1.50
2018-08-31T20:15:00.177Z,1.33
2018-08-31T20:17:28.409Z,1.60
2018-08-31T20:19:56.557Z,1.60
2018-08-31T20:22:24.698Z,1.60
2018-08-31T20:24:52.942Z,1.60
2018-08-31T20:27:21.076Z,1.60
2018-08-31T20:29:49.209Z,1.47
2018-08-31T20:32:17.369Z,1.53
2018-08-31T20:34:45.509Z,1.40
2018-08-31T20:37:13.660Z,1.57
2018-08-31T20:39:41.796Z,1.63
2018-08-31T20:42:09.933Z,1.70
2018-08-31T20:44:38.070Z,1.40
2018-08-31T20:47:06.280Z,1.50
2018-08-31T20:49:34.357Z,1.27
2018-08-31T20:52:02.501Z,1.90
2018-08-31T20:54:30.637Z,1.83
2018-08-31T20:56:58.786Z,1.30
2018-08-31T20:59:26.925Z,1.63
2018-08-31T21:01:55.070Z,1.50
2018-08-31T21:04:23.208Z,2.50
2018-08-31T21:06:51.528Z,2.00
2018-08-31T21:09:19.655Z,2.87
2018-08-31T21:11:47.846Z,1.90
2018-08-31T21:14:16.541Z,2.37
2018-08-31T21:16:44.807Z,1.83
2018-08-31T21:19:13.011Z,2.17
2018-08-31T21:21:41.417Z,1.70
2018-08-31T21:24:09.608Z,2.03
2018-08-31T21:26:37.807Z,3.20
2018-08-31T21:29:05.945Z,1.90
2018-08-31T21:31:34.081Z,2.10
2018-08-31T21:34:05.265Z,1.80
2018-08-31T21:36:33.393Z,1.73
2018-08-31T21:39:01.533Z,1.83
2018-08-31T21:41:29.661Z,2.10
2018-08-31T21:43:57.802Z,4.77
2018-08-31T21:46:25.929Z,2.20
2018-08-31T21:48:54.077Z,2.00
2018-08-31T21:51:22.209Z,1.67
2018-08-31T21:53:50.377Z,2.20
2018-08-31T21:56:18.509Z,1.80
2018-08-31T21:58:46.654Z,2.07
2018-08-31T22:01:20.249Z,2.03
2018-08-31T22:03:48.402Z,1.53
2018-08-31T22:06:16.529Z,1.90
2018-08-31T22:08:44.665Z,2.37
2018-08-31T22:11:12.799Z,1.30
2018-08-31T22:13:40.933Z,2.30
2018-08-31T22:16:09.105Z,1.73
2018-08-31T22:18:37.241Z,1.60
2018-08-31T22:21:05.411Z,1.43
2018-08-31T22:23:33.553Z,1.50
2018-08-31T22:26:01.685Z,2.00
2018-08-31T22:28:29.818Z,1.97
2018-08-31T22:30:57.949Z,2.20
2018-08-31T22:33:26.100Z,1.30
2018-08-31T22:35:54.217Z,1.70
2018-08-31T22:38:22.354Z,1.50
2018-08-31T22:40:50.487Z,2.00
2018-08-31T22:43:18.703Z,1.53
2018-08-31T22:45:46.831Z,1.50
2018-08-31T22:48:14.960Z,1.70
2018-08-31T22:50:43.309Z,1.80
2018-08-31T22:53:11.453Z,1.73
2018-08-31T22:55:39.582Z,1.50
2018-08-31T22:58:07.701Z,1.53
2018-08-31T23:00:35.802Z,1.33
2018-08-31T23:03:03.904Z,1.60
2018-08-31T23:05:32.013Z,1.50
2018-08-31T23:08:01.221Z,1.73
2018-08-31T23:10:29.334Z,1.60
2018-08-31T23:12:57.482Z,1.60
2018-08-31T23:15:25.577Z,1.53
2018-08-31T23:17:53.678Z,1.70
2018-08-31T23:20:21.953Z,1.97
2018-08-31T23:22:50.054Z,1.70
2018-08-31T23:25:23.718Z,1.60
2018-08-31T23:27:51.829Z,1.43
2018-08-31T23:30:19.937Z,1.90
2018-08-31T23:32:48.046Z,1.40
2018-08-31T23:35:16.165Z,2.10
2018-08-31T23:37:44.273Z,1.90
2018-08-31T23:40:12.393Z,2.10
2018-08-31T23:42:40.525Z,1.77
2018-08-31T23:45:08.669Z,1.83
2018-08-31T23:47:36.801Z,2.13
2018-08-31T23:50:05.188Z,1.77
2018-08-31T23:52:33.341Z,1.77
2018-08-31T23:55:01.480Z,2.00
2018-08-31T23:57:29.663Z,2.33
2018-08-31T23:59:57.801Z,1.90
